Time;durP1;ratioP1;P1;durP2;ratioP2;P2;SDS_P1;SDS_P2;PMS_P1;PMS_P2;Temp;Humidity;BMP_temperature;BMP_pressure;BME280_temperature;BME280_humidity;BME280_pressure;Samples;Min_cycle;Max_cycle;Signal;HPM_P1;HPM_P2
2023/08/10 00:01:43;;;;;;;4.00;2.87;;;;;;;16.00;100.00;98573.44;4151409;28;20624;-83
2023/08/10 00:03:45;;;;;;;4.67;3.20;;;;;;;15.93;100.00;98568.81;4162279;28;20765;-83
2023/08/10 00:05:48;;;;;;;3.10;2.20;;;;;;;15.81;99.79;98562.75;4142912;28;21213;-83
2023/08/10 00:07:51;;;;;;;3.37;2.40;;;;;;;15.76;100.00;98566.72;4145539;28;20672;-82
2023/08/10 00:09:54;;;;;;;5.47;2.30;;;;;;;15.70;100.00;98567.22;4121492;28;20659;-83
2023/08/10 00:11:57;;;;;;;3.30;2.33;;;;;;;15.65;100.00;98567.59;4152601;28;20691;-83
2023/08/10 00:14:00;;;;;;;3.47;2.27;;;;;;;15.60;100.00;98564.47;4129283;28;21199;-83
2023/08/10 00:16:05;;;;;;;3.23;2.50;;;;;;;15.56;100.00;98568.34;4154268;28;20625;-83
2023/08/10 00:18:09;;;;;;;4.07;3.13;;;;;;;15.57;100.00;98572.66;4134158;28;20734;-82
2023/08/10 00:20:12;;;;;;;3.67;2.77;;;;;;;15.56;100.00;98570.13;4135999;28;20731;-76
2023/08/10 00:22:15;;;;;;;7.00;3.20;;;;;;;15.57;100.00;98572.66;4151474;28;20632;-76
2023/08/10 00:24:19;;;;;;;4.20;2.83;;;;;;;15.57;100.00;98574.41;4121533;28;20685;-75
2023/08/10 00:26:22;;;;;;;3.60;2.97;;;;;;;15.57;100.00;98577.91;4116875;28;21083;-75
2023/08/10 00:28:25;;;;;;;6.57;2.70;;;;;;;15.55;100.00;98573.72;4128647;28;20630;-74
2023/08/10 00:30:29;;;;;;;3.67;2.60;;;;;;;15.52;100.00;98568.72;4135388;28;20719;-76
2023/08/10 00:32:33;;;;;;;3.17;2.33;;;;;;;15.47;100.00;98572.66;4123245;28;20639;-74
2023/08/10 00:34:37;;;;;;;5.60;2.57;;;;;;;15.44;100.00;98570.25;4123042;28;21187;-75
2023/08/10 00:36:40;;;;;;;3.90;2.73;;;;;;;15.41;100.00;98571.38;4123426;28;20636;-74
2023/08/10 00:38:44;;;;;;;3.60;2.93;;;;;;;15.38;100.00;98565.50;4150886;28;21256;-74
2023/08/10 00:40:47;;;;;;;3.50;2.40;;;;;;;15.34;100.00;98564.09;4118733;28;20629;-74
2023/08/10 00:42:50;;;;;;;3.80;2.30;;;;;;;15.30;100.00;98562.66;4131916;28;20661;-74
2023/08/10 00:44:54;;;;;;;3.37;2.60;;;;;;;15.26;99.94;98566.47;4140282;28;20736;-75
2023/08/10 00:46:58;;;;;;;6.43;2.50;;;;;;;15.21;100.00;98564.22;4135716;28;20670;-75
2023/08/10 00:49:03;;;;;;;3.93;2.60;;;;;;;15.16;100.00;98568.13;4134024;28;20705;-75
2023/08/10 00:51:06;;;;;;;4.67;2.73;;;;;;;15.11;100.00;98562.44;4151320;28;20638;-75
2023/08/10 00:53:09;;;;;;;6.03;2.90;;;;;;;15.08;100.00;98567.91;4133871;28;20642;-74
2023/08/10 00:55:13;;;;;;;3.60;2.47;;;;;;;15.04;100.00;98571.72;4141377;28;21187;-74
2023/08/10 00:57:17;;;;;;;3.80;2.77;;;;;;;15.02;100.00;98572.78;4128772;28;20646;-75
2023/08/10 00:59:20;;;;;;;4.23;2.37;;;;;;;15.00;100.00;98578.16;4122619;28;20615;-75
2023/08/10 01:01:24;;;;;;;2.90;2.23;;;;;;;14.97;100.00;98578.41;4152399;28;20647;-76
2023/08/10 01:03:28;;;;;;;4.03;2.30;;;;;;;14.96;100.00;98578.53;4160845;28;20988;-75
2023/08/10 01:05:40;;;;;;;2.40;2.03;;;;;;;14.90;100.00;98574.59;4142726;28;20751;-74
2023/08/10 01:07:50;;;;;;;3.00;2.10;;;;;;;14.86;100.00;98578.41;4144122;28;21244;-75
2023/08/10 01:10:01;;;;;;;2.70;2.30;;;;;;;14.86;99.45;98575.78;4136832;28;20660;-74
2023/08/10 01:12:10;;;;;;;5.30;2.73;;;;;;;14.87;99.56;98577.47;4135142;28;21067;-75
2023/08/10 01:14:18;;;;;;;5.40;2.60;;;;;;;14.86;100.00;98573.16;4127943;28;21217;-74
2023/08/10 01:16:22;;;;;;;3.23;2.40;;;;;;;14.86;100.00;98569.72;4137516;28;20633;-75
2023/08/10 01:18:28;;;;;;;3.77;2.57;;;;;;;14.84;100.00;98572.44;4153393;28;20644;-74
2023/08/10 01:20:31;;;;;;;3.47;2.40;;;;;;;14.81;100.00;98575.31;4142705;28;20634;-75
2023/08/10 01:22:45;;;;;;;5.40;2.90;;;;;;;14.78;100.00;98574.72;4154014;28;20683;-75
2023/08/10 01:24:58;;;;;;;4.30;2.77;;;;;;;14.73;99.22;98577.72;4136300;28;20625;-75
2023/08/10 01:27:01;;;;;;;3.80;2.83;;;;;;;14.66;100.00;98576.50;4117384;28;20645;-74
2023/08/10 01:29:05;;;;;;;2.87;2.30;;;;;;;14.63;98.84;98575.91;4137424;28;20669;-82
2023/08/10 01:31:08;;;;;;;3.00;2.30;;;;;;;14.60;98.83;98576.13;4158750;28;20662;-83
2023/08/10 01:33:13;;;;;;;3.90;2.67;;;;;;;14.55;99.92;98572.19;4160209;28;21045;-83
2023/08/10 01:35:16;;;;;;;5.70;2.67;;;;;;;14.54;100.00;98570.50;4157942;28;20663;-81
2023/08/10 01:37:19;;;;;;;4.23;2.50;;;;;;;14.53;100.00;98569.66;4142988;28;20636;-83
2023/08/10 01:39:22;;;;;;;3.37;2.27;;;;;;;14.51;100.00;98576.84;4140305;28;20628;-83
2023/08/10 01:41:26;;;;;;;7.07;2.23;;;;;;;14.49;100.00;98572.66;4122891;28;20627;-82
2023/08/10 01:43:29;;;;;;;5.30;2.10;;;;;;;14.48;100.00;98571.81;4145788;28;21156;-83
2023/08/10 01:45:32;;;;;;;4.00;2.10;;;;;;;14.46;100.00;98570.25;4157365;28;20639;-83
2023/08/10 01:47:40;;;;;;;2.83;2.00;;;;;;;14.43;100.00;98567.88;4140308;28;20953;-83
2023/08/10 01:49:44;;;;;;;3.10;2.30;;;;;;;14.40;100.00;98571.56;4139789;28;21322;-83
2023/08/10 01:51:48;;;;;;;3.90;2.10;;;;;;;14.36;100.00;98567.50;4121995;28;20637;-82
2023/08/10 01:53:52;;;;;;;2.80;2.17;;;;;;;14.34;100.00;98574.66;4145494;28;20620;-81
2023/08/10 01:55:56;;;;;;;5.40;2.13;;;;;;;14.33;100.00;98575.59;4144950;28;20675;-81
2023/08/10 01:58:00;;;;;;;2.43;1.93;;;;;;;14.31;100.00;98576.66;4121546;28;20733;-83
2023/08/10 02:00:06;;;;;;;4.20;1.97;;;;;;;14.30;100.00;98575.00;4126092;28;20664;-83
2023/08/10 02:02:17;;;;;;;2.60;1.90;;;;;;;14.24;100.00;98576.28;4133536;28;20628;-83
2023/08/10 02:04:21;;;;;;;3.10;2.10;;;;;;;14.20;100.00;98568.78;4119192;28;20645;-83
2023/08/10 02:06:24;;;;;;;2.67;2.00;;;;;;;14.16;100.00;98583.06;4120966;28;21037;-83
2023/08/10 02:08:27;;;;;;;4.40;2.07;;;;;;;14.09;99.70;98576.63;4150631;28;20647;-84
2023/08/10 02:10:30;;;;;;;2.60;2.13;;;;;;;14.06;100.00;98576.84;4127654;28;20658;-82
2023/08/10 02:12:33;;;;;;;3.43;1.87;;;;;;;14.05;99.63;98575.16;4129705;28;20704;-83
2023/08/10 02:14:38;;;;;;;2.40;1.73;;;;;;;14.04;99.68;98575.25;4157997;28;20724;-83
2023/08/10 02:16:40;;;;;;;3.53;2.20;;;;;;;14.03;99.40;98574.41;4125135;28;20685;-83
2023/08/10 02:18:43;;;;;;;3.30;2.13;;;;;;;14.03;99.82;98573.59;4154267;28;20640;-83
2023/08/10 02:20:46;;;;;;;2.77;1.90;;;;;;;14.02;99.78;98572.72;4130561;28;20637;-83
2023/08/10 02:22:51;;;;;;;3.87;2.47;;;;;;;14.02;100.00;98571.91;4154951;28;20726;-83
2023/08/10 02:24:54;;;;;;;3.97;2.30;;;;;;;14.03;100.00;98578.84;4153945;28;20636;-83
2023/08/10 02:26:58;;;;;;;3.83;2.77;;;;;;;14.03;100.00;98579.66;4129250;28;20629;-83
2023/08/10 02:29:01;;;;;;;3.93;2.70;;;;;;;14.03;100.00;98581.47;4153286;28;21014;-83
2023/08/10 02:31:06;;;;;;;2.90;2.43;;;;;;;14.02;100.00;98577.97;4122123;28;20674;-82
2023/08/10 02:33:10;;;;;;;3.27;2.50;;;;;;;14.04;100.00;98570.00;4145207;28;20635;-84
2023/08/10 02:35:14;;;;;;;3.10;2.53;;;;;;;14.03;100.00;98579.66;4119742;28;20628;-82
2023/08/10 02:37:17;;;;;;;4.30;2.70;;;;;;;14.01;100.00;98581.56;4135577;28;21231;-83
2023/08/10 02:39:20;;;;;;;3.00;2.40;;;;;;;13.99;100.00;98583.44;4137434;28;20637;-82
2023/08/10 02:41:23;;;;;;;5.40;3.00;;;;;;;13.99;100.00;98587.88;4146130;28;20671;-83
2023/08/10 02:43:26;;;;;;;5.10;2.97;;;;;;;14.00;100.00;98590.38;4129953;28;20633;-84
2023/08/10 02:45:30;;;;;;;4.90;2.83;;;;;;;14.01;100.00;98586.81;4146531;28;20633;-83
2023/08/10 02:47:34;;;;;;;3.80;2.57;;;;;;;14.02;100.00;98585.00;4125855;28;20676;-84
2023/08/10 02:49:38;;;;;;;3.40;2.50;;;;;;;14.02;100.00;98593.72;4156420;28;21263;-83
2023/08/10 02:51:41;;;;;;;2.90;2.30;;;;;;;14.02;100.00;98595.50;4136235;28;21099;-82
2023/08/10 02:53:45;;;;;;;6.00;2.60;;;;;;;14.01;100.00;98599.06;4119629;28;20720;-84
2023/08/10 02:55:48;;;;;;;4.00;2.50;;;;;;;14.01;100.00;98596.44;4136568;28;20702;-82
2023/08/10 02:57:51;;;;;;;4.53;3.10;;;;;;;14.01;100.00;98597.31;4155294;28;21094;-82
2023/08/10 02:59:53;;;;;;;4.90;2.63;;;;;;;14.02;100.00;98593.72;4141851;28;21097;-84
2023/08/10 03:01:56;;;;;;;4.20;2.70;;;;;;;14.02;100.00;98588.47;4128038;28;20634;-83
2023/08/10 03:04:01;;;;;;;5.30;2.90;;;;;;;14.01;100.00;98592.06;4143342;28;21338;-83
2023/08/10 03:06:04;;;;;;;4.80;3.07;;;;;;;13.96;100.00;98590.72;4151375;28;20672;-83
2023/08/10 03:08:09;;;;;;;5.00;2.10;;;;;;;13.92;100.00;98595.34;4138007;28;20723;-83
2023/08/10 03:10:12;;;;;;;5.13;2.30;;;;;;;13.89;100.00;98592.97;4152404;28;20695;-83
2023/08/10 03:12:15;;;;;;;6.10;2.53;;;;;;;13.88;100.00;98590.44;4139648;28;20620;-83
2023/08/10 03:14:19;;;;;;;5.27;2.50;;;;;;;13.85;100.00;98588.06;4130159;28;20644;-83
2023/08/10 03:16:22;;;;;;;4.90;2.17;;;;;;;13.81;100.00;98600.53;4146316;28;20744;-81
2023/08/10 03:18:25;;;;;;;4.63;2.60;;;;;;;13.79;100.00;98596.38;4138486;28;20626;-80
2023/08/10 03:20:30;;;;;;;5.87;2.50;;;;;;;13.78;100.00;98605.16;4128479;28;20634;-83
2023/08/10 03:22:33;;;;;;;6.37;2.70;;;;;;;13.76;100.00;98600.03;4160876;28;20628;-83
2023/08/10 03:24:37;;;;;;;4.70;2.30;;;;;;;13.76;100.00;98601.84;4142140;28;20672;-82
2023/08/10 03:26:40;;;;;;;6.67;2.63;;;;;;;13.75;100.00;98592.28;4146206;28;20632;-83
2023/08/10 03:28:44;;;;;;;4.97;2.93;;;;;;;13.73;100.00;98588.94;4145768;28;20630;-83
2023/08/10 03:30:48;;;;;;;5.20;2.40;;;;;;;13.74;100.00;98596.69;4122298;28;21048;-82
2023/08/10 03:32:52;;;;;;;3.00;2.20;;;;;;;13.76;100.00;98600.03;4138984;28;20614;-83
2023/08/10 03:34:55;;;;;;;4.00;2.13;;;;;;;13.76;100.00;98605.28;4138602;28;20640;-82
2023/08/10 03:36:59;;;;;;;4.20;2.77;;;;;;;13.73;100.00;98608.13;4127571;28;20637;-82
2023/08/10 03:39:03;;;;;;;6.83;2.17;;;;;;;13.71;100.00;98604.78;4147330;28;20733;-82
2023/08/10 03:41:06;;;;;;;3.70;2.40;;;;;;;13.67;100.00;98611.19;4129142;28;20781;-83
2023/08/10 03:43:10;;;;;;;5.03;1.90;;;;;;;13.64;100.00;98612.38;4137033;28;20636;-83
2023/08/10 03:45:13;;;;;;;3.37;1.83;;;;;;;13.62;100.00;98616.88;4122969;28;20991;-82
2023/08/10 03:47:17;;;;;;;6.43;2.27;;;;;;;13.59;100.00;98609.22;4145316;28;21247;-83
2023/08/10 03:49:22;;;;;;;2.73;2.10;;;;;;;13.60;100.00;98621.41;4129374;28;21011;-74
2023/08/10 03:51:26;;;;;;;4.33;2.07;;;;;;;13.59;100.00;98619.72;4157337;28;20664;-76
2023/08/10 03:53:30;;;;;;;3.37;1.87;;;;;;;13.57;100.00;98617.19;4155208;28;20687;-74
2023/08/10 03:55:33;;;;;;;3.10;1.90;;;;;;;13.58;100.00;98618.06;4140250;28;20679;-75
2023/08/10 03:57:37;;;;;;;4.17;1.90;;;;;;;13.58;100.00;98618.88;4130054;28;21003;-75
2023/08/10 03:59:40;;;;;;;7.50;2.20;;;;;;;13.58;100.00;98621.50;4125521;28;20644;-74
2023/08/10 04:01:43;;;;;;;5.77;1.90;;;;;;;13.57;100.00;98617.19;4121543;28;20637;-74
2023/08/10 04:03:47;;;;;;;3.93;2.17;;;;;;;13.57;100.00;98629.47;4139574;28;20736;-74
2023/08/10 04:05:51;;;;;;;3.20;2.10;;;;;;;13.56;100.00;98619.94;4155009;28;20654;-74
2023/08/10 04:07:54;;;;;;;3.17;2.20;;;;;;;13.54;100.00;98608.72;4123852;28;20624;-75
2023/08/10 04:09:59;;;;;;;3.47;2.07;;;;;;;13.53;100.00;98620.16;4124526;28;20692;-74
2023/08/10 04:12:02;;;;;;;3.83;1.90;;;;;;;13.53;100.00;98613.16;4129411;28;20668;-74
2023/08/10 04:14:06;;;;;;;8.57;2.23;;;;;;;13.52;100.00;98616.72;4118792;28;20635;-75
2023/08/10 04:16:10;;;;;;;2.77;1.83;;;;;;;13.51;100.00;98608.94;4120848;28;21323;-74
2023/08/10 04:18:14;;;;;;;2.83;2.00;;;;;;;13.51;100.00;98606.34;4122045;28;20749;-76
2023/08/10 04:20:17;;;;;;;3.80;2.03;;;;;;;13.50;100.00;98613.38;4136130;28;20682;-74
2023/08/10 04:22:20;;;;;;;2.03;1.70;;;;;;;13.49;100.00;98614.31;4128948;28;20632;-74
2023/08/10 04:24:23;;;;;;;2.63;2.10;;;;;;;13.47;100.00;98604.88;4138293;28;21219;-75
2023/08/10 04:26:28;;;;;;;3.10;1.90;;;;;;;13.47;100.00;98600.47;4139668;28;21063;-76
2023/08/10 04:28:32;;;;;;;3.27;1.67;;;;;;;13.47;100.00;98613.59;4154736;28;20636;-75
2023/08/10 04:30:35;;;;;;;3.30;1.70;;;;;;;13.47;100.00;98615.34;4135954;28;21233;-74
2023/08/10 04:32:38;;;;;;;1.73;1.23;;;;;;;13.48;100.00;98622.28;4153142;28;20646;-74
2023/08/10 04:34:41;;;;;;;2.53;2.00;;;;;;;13.50;100.00;98625.63;4153700;28;20707;-74
2023/08/10 04:36:45;;;;;;;2.60;1.90;;;;;;;13.53;100.00;98630.63;4128636;28;20633;-74
2023/08/10 04:38:48;;;;;;;4.63;2.60;;;;;;;13.56;100.00;98625.16;4148468;28;20738;-74
2023/08/10 04:40:51;;;;;;;4.90;2.30;;;;;;;13.59;100.00;98633.69;4144816;28;20631;-75
2023/08/10 04:42:56;;;;;;;2.87;2.40;;;;;;;13.62;100.00;98636.06;4151659;28;20694;-74
2023/08/10 04:44:59;;;;;;;9.83;2.47;;;;;;;13.67;100.00;98639.19;4145537;28;20682;-74
2023/08/10 04:47:02;;;;;;;7.40;2.80;;;;;;;13.70;100.00;98644.22;4143956;28;20719;-75
2023/08/10 04:49:06;;;;;;;5.00;2.47;;;;;;;13.70;100.00;98639.81;4153512;28;20690;-75
2023/08/10 04:51:09;;;;;;;3.00;2.30;;;;;;;13.70;100.00;98647.66;4148894;28;20629;-74
2023/08/10 04:53:12;;;;;;;5.37;2.93;;;;;;;13.70;100.00;98644.22;4149729;28;20628;-74
2023/08/10 04:55:16;;;;;;;2.90;2.00;;;;;;;13.72;100.00;98642.31;4152671;28;21010;-75
2023/08/10 04:57:19;;;;;;;5.60;2.67;;;;;;;13.73;100.00;98644.81;4152565;28;20632;-74
2023/08/10 04:59:24;;;;;;;15.77;2.80;;;;;;;13.72;100.00;98643.13;4122489;28;20633;-75
2023/08/10 05:01:27;;;;;;;9.77;2.60;;;;;;;13.72;100.00;98642.31;4137855;28;20630;-74
2023/08/10 05:03:30;;;;;;;5.13;2.80;;;;;;;13.70;100.00;98638.97;4156953;28;20620;-74
2023/08/10 05:05:34;;;;;;;6.53;3.17;;;;;;;13.70;100.00;98647.66;4133701;28;20645;-76
2023/08/10 05:07:38;;;;;;;5.80;2.77;;;;;;;13.71;100.00;98646.72;4144032;28;21126;-74
2023/08/10 05:09:41;;;;;;;4.67;2.50;;;;;;;13.72;100.00;98645.75;4144223;28;20675;-74
2023/08/10 05:11:58;;;;;;;9.60;2.87;;;;;;;13.74;100.00;98643.03;4148538;28;20719;-74
2023/08/10 05:14:01;;;;;;;6.83;2.30;;;;;;;13.76;100.00;98651.66;4137658;28;20645;-74
2023/08/10 05:16:06;;;;;;;6.20;2.27;;;;;;;13.75;100.00;98645.53;4119182;28;20972;-76
2023/08/10 05:18:09;;;;;;;5.00;2.10;;;;;;;13.75;100.00;98653.41;4159906;28;21044;-75
2023/08/10 05:20:11;;;;;;;9.00;2.20;;;;;;;13.81;100.00;98650.34;4154193;28;20713;-75
2023/08/10 05:22:15;;;;;;;7.77;2.80;;;;;;;13.92;100.00;98655.69;4148007;28;20630;-75
2023/08/10 05:24:18;;;;;;;6.63;2.90;;;;;;;13.99;100.00;98650.81;4118739;28;20648;-74
2023/08/10 05:26:21;;;;;;;10.73;2.67;;;;;;;14.07;100.00;98658.97;4154283;28;21349;-74
2023/08/10 05:28:24;;;;;;;3.63;2.50;;;;;;;14.15;100.00;98660.94;4140695;28;20641;-75
2023/08/10 05:30:27;;;;;;;4.00;2.73;;;;;;;14.23;100.00;98660.38;4153375;28;21043;-75
2023/08/10 05:32:32;;;;;;;10.87;2.70;;;;;;;14.33;100.00;98662.22;4135529;28;20641;-74
2023/08/10 05:34:35;;;;;;;4.63;2.50;;;;;;;14.38;100.00;98664.50;4136056;28;20999;-75
2023/08/10 05:36:38;;;;;;;5.83;2.40;;;;;;;14.46;100.00;98672.63;4120839;28;20664;-74
2023/08/10 05:38:40;;;;;;;2.73;2.43;;;;;;;14.58;100.00;98671.72;4144322;28;20769;-76
2023/08/10 05:40:43;;;;;;;3.27;2.60;;;;;;;14.70;100.00;98661.97;4144189;28;20671;-75
2023/08/10 05:42:46;;;;;;;3.03;2.33;;;;;;;14.85;100.00;98665.22;4141312;28;20633;-74
2023/08/10 05:44:49;;;;;;;6.40;2.50;;;;;;;15.03;100.00;98669.88;4142669;28;20622;-75
2023/08/10 05:46:52;;;;;;;4.73;2.53;;;;;;;15.19;99.94;98678.31;4162092;28;20642;-74
2023/08/10 05:48:56;;;;;;;2.97;2.30;;;;;;;15.46;100.00;98673.53;4128635;28;21232;-76
2023/08/10 05:51:00;;;;;;;3.20;2.60;;;;;;;15.71;96.87;98674.94;4159423;28;20622;-75
2023/08/10 05:53:03;;;;;;;4.43;2.67;;;;;;;15.74;97.63;98674.69;4156103;28;20661;-74
2023/08/10 05:55:07;;;;;;;4.10;2.83;;;;;;;15.97;96.55;98676.31;4159480;28;20660;-74
2023/08/10 05:57:10;;;;;;;3.90;2.40;;;;;;;16.36;96.65;98681.03;4142992;28;20637;-74
2023/08/10 05:59:13;;;;;;;3.47;2.43;;;;;;;16.67;96.40;98684.47;4130718;28;20670;-76
2023/08/10 06:01:16;;;;;;;2.90;2.43;;;;;;;16.77;96.33;98676.63;4141556;28;20631;-74
2023/08/10 06:03:20;;;;;;;3.20;2.23;;;;;;;17.02;94.19;98679.69;4136595;28;20614;-77
2023/08/10 06:05:24;;;;;;;2.30;2.00;;;;;;;17.31;94.02;98683.34;4143791;28;20745;-75
2023/08/10 06:07:27;;;;;;;2.97;2.10;;;;;;;17.46;92.75;98691.59;4143051;28;20649;-74
2023/08/10 06:09:30;;;;;;;3.00;2.20;;;;;;;17.56;92.24;98700.41;4140095;28;21264;-75
2023/08/10 06:11:34;;;;;;;4.27;2.23;;;;;;;17.53;92.24;98707.75;4159830;28;20639;-74
2023/08/10 06:13:50;;;;;;;3.07;2.00;;;;;;;17.37;93.53;98704.75;4141920;28;20663;-76
2023/08/10 06:15:53;;;;;;;4.73;2.13;;;;;;;17.26;93.40;98696.06;4143141;28;20643;-74
2023/08/10 06:17:56;;;;;;;2.73;2.00;;;;;;;17.20;94.65;98704.47;4155984;28;20648;-74
2023/08/10 06:20:02;;;;;;;6.90;2.23;;;;;;;17.12;95.14;98704.31;4155309;28;20638;-74
2023/08/10 06:22:06;;;;;;;2.77;2.20;;;;;;;17.05;94.56;98696.09;4145536;28;20661;-75
2023/08/10 06:24:10;;;;;;;4.40;3.30;;;;;;;17.01;94.71;98693.84;4159249;28;20739;-75
2023/08/10 06:26:13;;;;;;;4.57;2.30;;;;;;;16.96;93.63;98692.53;4139733;28;20643;-74
2023/08/10 06:28:17;;;;;;;3.50;2.10;;;;;;;16.88;94.42;98687.91;4129880;28;20636;-76
2023/08/10 06:30:19;;;;;;;2.67;1.80;;;;;;;16.85;93.75;98696.06;4141734;28;20632;-75
2023/08/10 06:32:22;;;;;;;2.73;1.90;;;;;;;16.83;95.27;98682.19;4143765;28;20662;-74
2023/08/10 06:34:25;;;;;;;2.73;2.13;;;;;;;16.87;96.75;98693.31;4153194;28;20991;-75
2023/08/10 06:36:28;;;;;;;3.13;2.40;;;;;;;16.89;97.51;98689.59;4138408;28;20648;-74
2023/08/10 06:38:34;;;;;;;3.00;2.40;;;;;;;16.93;96.23;98701.56;4130579;28;20631;-74
2023/08/10 06:40:37;;;;;;;3.23;1.90;;;;;;;16.97;96.46;98702.94;4130276;28;20671;-74
2023/08/10 06:42:40;;;;;;;3.00;2.70;;;;;;;17.03;97.11;98705.06;4146397;28;20626;-74
2023/08/10 06:44:50;;;;;;;3.00;2.43;;;;;;;17.06;97.59;98703.03;4129876;28;20646;-75
2023/08/10 06:46:53;;;;;;;3.53;2.70;;;;;;;17.12;98.50;98709.56;4124668;28;20636;-74
2023/08/10 06:48:57;;;;;;;4.03;2.90;;;;;;;17.16;98.77;98705.72;4154698;28;20630;-74
2023/08/10 06:51:00;;;;;;;3.37;2.43;;;;;;;17.20;98.71;98709.75;4156278;28;20666;-75
2023/08/10 06:53:03;;;;;;;2.43;1.90;;;;;;;17.20;98.23;98701.84;4125515;28;20663;-75
2023/08/10 06:55:11;;;;;;;2.87;2.57;;;;;;;17.25;97.79;98704.97;4129250;28;20640;-74
2023/08/10 06:57:14;;;;;;;2.90;2.47;;;;;;;17.29;97.29;98709.00;4144092;28;20642;-75
2023/08/10 06:59:18;;;;;;;4.53;2.30;;;;;;;17.33;97.19;98705.97;4137242;28;21273;-75
2023/08/10 07:01:22;;;;;;;3.73;2.47;;;;;;;17.40;97.98;98703.66;4155319;28;20658;-75
2023/08/10 07:03:25;;;;;;;2.83;2.10;;;;;;;17.45;97.90;98709.38;4118951;28;20949;-74
2023/08/10 07:05:29;;;;;;;3.50;2.23;;;;;;;17.49;98.39;98706.34;4144174;28;21775;-75
2023/08/10 07:07:33;;;;;;;2.80;1.97;;;;;;;17.53;98.17;98711.22;4140017;28;20629;-74
2023/08/10 07:09:37;;;;;;;6.20;2.77;;;;;;;17.59;97.63;98717.75;4137125;28;21010;-74
2023/08/10 07:11:41;;;;;;;3.27;2.23;;;;;;;17.64;98.66;98724.31;4124111;28;20660;-76
2023/08/10 07:13:46;;;;;;;3.13;2.60;;;;;;;17.68;98.53;98725.72;4126229;28;20671;-74
2023/08/10 07:15:49;;;;;;;3.60;2.50;;;;;;;17.72;97.93;98724.47;4151958;28;20989;-75
2023/08/10 07:17:51;;;;;;;3.10;2.60;;;;;;;17.78;98.38;98723.13;4156883;28;20623;-76
2023/08/10 07:19:55;;;;;;;3.67;2.30;;;;;;;17.82;97.49;98727.19;4156181;28;20638;-76
2023/08/10 07:21:58;;;;;;;3.30;2.10;;;;;;;17.85;98.37;98722.44;4144090;28;20742;-75
2023/08/10 07:24:01;;;;;;;2.90;2.37;;;;;;;17.89;97.16;98723.88;4147181;28;20959;-74
2023/08/10 07:26:04;;;;;;;3.73;2.63;;;;;;;17.93;96.23;98715.50;4154688;28;20618;-76
2023/08/10 07:28:09;;;;;;;2.40;2.03;;;;;;;17.92;95.74;98719.16;4147364;28;20618;-75
2023/08/10 07:30:13;;;;;;;2.83;2.40;;;;;;;17.98;96.13;98720.41;4134658;28;21209;-75
2023/08/10 07:32:18;;;;;;;3.00;2.47;;;;;;;18.05;96.81;98726.81;4151165;28;20647;-76
2023/08/10 07:34:21;;;;;;;4.00;2.40;;;;;;;18.15;96.80;98725.06;4144088;28;20710;-75
2023/08/10 07:36:25;;;;;;;3.03;2.73;;;;;;;18.18;95.44;98727.44;4153844;28;20657;-75
2023/08/10 07:38:28;;;;;;;3.10;2.50;;;;;;;18.21;95.40;98729.81;4150606;28;20670;-75
2023/08/10 07:40:31;;;;;;;3.37;2.70;;;;;;;18.29;96.91;98735.25;4129527;28;20639;-75
2023/08/10 07:42:35;;;;;;;3.00;2.40;;;;;;;18.38;97.12;98735.25;4140771;28;20667;-74
2023/08/10 07:44:39;;;;;;;3.47;2.50;;;;;;;18.44;96.74;98735.53;4122495;28;20976;-74
2023/08/10 07:46:41;;;;;;;3.70;2.53;;;;;;;18.51;97.47;98735.84;4147756;28;21042;-74
2023/08/10 07:48:46;;;;;;;2.90;2.27;;;;;;;18.55;97.31;98732.78;4129520;28;20638;-74
2023/08/10 07:50:50;;;;;;;3.80;2.17;;;;;;;18.63;98.60;98735.56;4118837;28;20736;-75
2023/08/10 07:52:54;;;;;;;3.50;2.20;;;;;;;18.74;97.99;98735.41;4123332;28;20622;-75
2023/08/10 07:54:57;;;;;;;2.40;2.20;;;;;;;18.80;97.38;98734.88;4162066;28;20648;-74
2023/08/10 07:57:00;;;;;;;9.33;2.90;;;;;;;18.88;96.07;98737.63;4159455;28;20670;-75
2023/08/10 07:59:04;;;;;;;3.97;2.90;;;;;;;18.99;95.87;98740.16;4156821;28;21067;-76
2023/08/10 08:01:09;;;;;;;5.70;2.43;;;;;;;19.05;95.09;98737.81;4127867;28;20677;-75
2023/08/10 08:03:12;;;;;;;4.30;2.97;;;;;;;19.14;93.18;98734.31;4159541;28;20634;-74
2023/08/10 08:05:16;;;;;;;3.20;2.50;;;;;;;19.22;92.94;98736.25;4159896;28;20678;-76
2023/08/10 08:07:19;;;;;;;3.17;2.73;;;;;;;19.32;93.52;98740.56;4140989;28;20624;-74
2023/08/10 08:09:23;;;;;;;3.53;3.00;;;;;;;19.37;93.81;98737.47;4151871;28;20734;-75
2023/08/10 08:11:28;;;;;;;3.30;2.40;;;;;;;19.46;95.50;98746.22;4123064;28;20650;-75
2023/08/10 08:13:31;;;;;;;3.57;2.47;;;;;;;19.57;94.67;98748.69;4124014;28;20662;-75
2023/08/10 08:15:35;;;;;;;7.30;3.30;;;;;;;19.68;93.49;98748.53;4155651;28;20636;-74
2023/08/10 08:18:15;;;;;;;4.57;2.53;;;;;;;19.83;92.61;98751.50;4121334;28;21231;-75
2023/08/10 08:20:20;;;;;;;2.67;2.27;;;;;;;19.95;91.51;98748.56;4153120;28;20735;-75
2023/08/10 08:22:23;;;;;;;2.87;2.23;;;;;;;20.05;90.61;98744.06;4155380;28;20970;-75
2023/08/10 08:24:27;;;;;;;3.40;2.53;;;;;;;20.10;89.00;98744.44;4156170;28;21096;-75
2023/08/10 08:26:32;;;;;;;3.13;2.20;;;;;;;20.14;88.75;98744.00;4144874;28;20657;-75
2023/08/10 08:28:35;;;;;;;3.40;2.60;;;;;;;20.28;89.22;98737.38;4137042;28;20643;-75
2023/08/10 08:30:39;;;;;;;3.00;2.33;;;;;;;20.42;89.63;98737.72;4153160;28;21259;-82
2023/08/10 08:32:42;;;;;;;3.00;2.40;;;;;;;20.55;87.66;98749.63;4127916;28;20673;-84
2023/08/10 08:34:51;;;;;;;2.47;2.13;;;;;;;20.69;89.22;98737.66;4124193;28;20656;-84
2023/08/10 08:36:56;;;;;;;3.67;2.30;;;;;;;20.83;89.00;98740.63;4151219;28;20623;-83
2023/08/10 08:38:59;;;;;;;2.80;2.30;;;;;;;20.93;89.47;98736.91;4152263;28;20668;-83
2023/08/10 08:41:05;;;;;;;3.40;2.53;;;;;;;21.10;90.10;98743.19;4121261;28;20632;-83
2023/08/10 08:43:07;;;;;;;3.20;2.47;;;;;;;21.27;89.28;98740.50;4155618;28;21248;-84
2023/08/10 08:45:10;;;;;;;2.97;2.47;;;;;;;21.42;87.64;98739.81;4154718;28;21202;-83
2023/08/10 08:47:14;;;;;;;3.03;2.37;;;;;;;21.54;86.81;98740.38;4135956;28;20634;-83
2023/08/10 08:49:22;;;;;;;2.67;2.17;;;;;;;21.72;85.34;98746.47;4137334;28;20644;-81
2023/08/10 08:51:25;;;;;;;2.60;2.03;;;;;;;21.87;86.27;98743.88;4134199;28;20658;-83
2023/08/10 08:53:30;;;;;;;2.73;1.97;;;;;;;22.03;82.43;98741.31;4152867;28;20701;-83
2023/08/10 08:55:34;;;;;;;2.70;2.20;;;;;;;22.14;81.99;98729.56;4127784;28;20615;-83
2023/08/10 08:57:38;;;;;;;2.93;2.10;;;;;;;22.28;81.91;98735.97;4137868;28;20630;-82
2023/08/10 08:59:41;;;;;;;3.83;2.20;;;;;;;22.39;81.87;98733.00;4144539;28;21405;-83
2023/08/10 09:01:46;;;;;;;3.40;2.23;;;;;;;22.45;79.77;98732.34;4136968;28;20635;-84
2023/08/10 09:03:49;;;;;;;3.00;2.30;;;;;;;22.65;82.70;98733.72;4151470;28;21007;-84
2023/08/10 09:05:53;;;;;;;2.90;2.33;;;;;;;22.90;83.28;98728.28;4136561;28;20644;-84
2023/08/10 09:07:55;;;;;;;3.07;2.43;;;;;;;23.02;78.49;98723.47;4142143;28;20723;-83
2023/08/10 09:09:59;;;;;;;2.90;2.20;;;;;;;23.06;78.72;98724.81;4123950;28;20650;-83
2023/08/10 09:12:30;;;;;;;2.53;2.17;;;;;;;23.27;80.46;98721.50;4154147;28;20646;-83
2023/08/10 09:14:34;;;;;;;3.37;2.80;;;;;;;23.50;82.30;98721.59;4153499;28;20774;-84
2023/08/10 09:16:38;;;;;;;3.03;2.37;;;;;;;23.49;79.06;98717.28;4155596;28;20633;-84
2023/08/10 09:18:44;;;;;;;3.00;2.30;;;;;;;23.61;81.81;98716.75;4138504;28;21009;-83
2023/08/10 09:20:47;;;;;;;3.00;2.50;;;;;;;23.79;80.50;98717.41;4144057;28;20619;-84
2023/08/10 09:22:51;;;;;;;3.30;2.77;;;;;;;23.83;78.34;98713.38;4138216;28;20766;-83
2023/08/10 09:24:55;;;;;;;2.83;2.53;;;;;;;23.78;77.00;98705.06;4139103;28;20690;-83
2023/08/10 09:27:01;;;;;;;3.00;2.50;;;;;;;23.88;78.02;98709.22;4141260;28;20715;-84
2023/08/10 09:29:04;;;;;;;3.30;2.70;;;;;;;24.12;75.52;98714.44;4159004;28;20641;-84
2023/08/10 09:31:09;;;;;;;3.90;2.50;;;;;;;24.31;77.10;98709.53;4141524;28;20634;-84
2023/08/10 09:33:30;;;;;;;3.57;2.50;;;;;;;24.42;74.01;98700.31;4155545;28;20632;-84
2023/08/10 09:35:33;;;;;;;5.27;2.90;;;;;;;24.57;78.58;98704.72;4153988;28;20656;-80
2023/08/10 09:37:36;;;;;;;3.20;2.80;;;;;;;24.63;77.91;98698.69;4140234;28;20687;-83
2023/08/10 09:39:40;;;;;;;3.77;2.83;;;;;;;24.70;79.43;98702.28;4160178;28;20647;-84
2023/08/10 09:41:43;;;;;;;4.33;2.73;;;;;;;24.66;74.53;98695.66;4154910;28;21001;-76